Rankings de siempre
Mejores tiempos personales válidos de atleta a través de todos los eventos y temporadas. Cada atleta aparece una vez por división.
Busca por nombre y abre la página donde está clasificado este récord de división.
104,221 atletas clasificados
| Pos. | Pos. AG | Atleta | Nacionalidad | Categoría de edad | TiempoMejor tiempo | Diferencia |
|---|---|---|---|---|---|---|
| 12276 | #3332 | Sarah KirstenGER · W 30-34 · AG #3332 | GER | W 30-34 | 1:18:51 | +39:15 |
| 12277 | #3371 | Jocelyn KellnerUSA · W 25-29 · AG #3371 | USA | W 25-29 | 1:18:51 | +39:15 |
| 12278 | #2190 | Nicole KarnsUSA · W 35-39 · AG #2190 | USA | W 35-39 | 1:18:51 | +39:15 |
| 12279 | #3375 | Sarah VannesteCAN · W 25-29 · AG #3375 | CAN | W 25-29 | 1:18:51 | +39:15 |
| 12280 | #1449 | Stephanie HannaGBR · W 40-44 · AG #1449 | GBR | W 40-44 | 1:18:51 | +39:15 |
| 12281 | #1450 | Erika MikolajovaSVK · W 40-44 · AG #1450 | SVK | W 40-44 | 1:18:51 | +39:15 |
| 12282 | #636 | Mandy WilliamsGBR · W 45-49 · AG #636 | GBR | W 45-49 | 1:18:51 | +39:15 |
| 12283 | #205 | Andrea MrugGER · W 50-54 · AG #205 | GER | W 50-54 | 1:18:51 | +39:15 |
| 12284 | #2191 | Elodie DewezBEL · W 35-39 · AG #2191 | BEL | W 35-39 | 1:18:51 | +39:15 |
| 12285 | #3336 | Eilidh BellshawGBR · W 30-34 · AG #3336 | GBR | W 30-34 | 1:18:51 | +39:15 |
| 12286 | #637 | Jenn AllisonGBR · W 45-49 · AG #637 | GBR | W 45-49 | 1:18:51 | +39:15 |
| 12287 | #2188 | Constanza NahumCHI · W 35-39 · AG #2188 | CHI | W 35-39 | 1:18:51 | +39:15 |
| 12288 | #3330 | Priscillia JaccouFRA · W 30-34 · AG #3330 | FRA | W 30-34 | 1:18:51 | +39:15 |
| 12289 | #1667 | Jade LebobeFRA · W 16-24 · AG #1667 | FRA | W 16-24 | 1:18:51 | +39:15 |
| 12290 | #1448 | Fran StringerGBR · W 40-44 · AG #1448 | GBR | W 40-44 | 1:18:51 | +39:15 |
| 12291 | #3335 | Bree FigginsUSA · W 30-34 · AG #3335 | USA | W 30-34 | 1:18:51 | +39:15 |
| 12292 | #1664 | Bethany ToftonGBR · W 16-24 · AG #1664 | GBR | W 16-24 | 1:18:51 | +39:15 |
| 12293 | #3328 | Jenny KästelSWE · W 30-34 · AG #3328 | SWE | W 30-34 | 1:18:51 | +39:15 |
| 12294 | #1444 | Anita PersaudUSA · W 40-44 · AG #1444 | USA | W 40-44 | 1:18:51 | +39:15 |
| 12295 | #2192 | Marissa CibrianUSA · W 35-39 · AG #2192 | USA | W 35-39 | 1:18:51 | +39:15 |
| 12296 | #3376 | Carlota Gómez RuizESP · W 25-29 · AG #3376 | ESP | W 25-29 | 1:18:52 | +39:16 |
| 12297 | #3377 | Hojin KimKOR · W 25-29 · AG #3377 | KOR | W 25-29 | 1:18:52 | +39:16 |
| 12298 | #1456 | 媛媛 吴CHN · W 40-44 · AG #1456 | CHN | W 40-44 | 1:18:52 | +39:16 |
| 12299 | #1452 | Elisa KoeneCAN · W 40-44 · AG #1452 | CAN | W 40-44 | 1:18:52 | +39:16 |
| 12300 | #2194 | Elisenda Sánchez SuárezESP · W 35-39 · AG #2194 | ESP | W 35-39 | 1:18:52 | +39:16 |
Página 492 de 4,169